createdAt,value
2022-12-07T00:01:24.831Z,5.10
2022-12-07T00:03:54.867Z,5.10
2022-12-07T00:06:22.415Z,5.90
2022-12-07T00:08:50.083Z,6.70
2022-12-07T00:11:22.863Z,5.10
2022-12-07T00:13:58.954Z,5.40
2022-12-07T00:16:30.006Z,5.30
2022-12-07T00:18:57.847Z,5.40
2022-12-07T00:21:30.535Z,5.30
2022-12-07T00:23:58.618Z,6.40
2022-12-07T00:26:27.665Z,7.10
2022-12-07T00:28:57.316Z,6.00
2022-12-07T00:31:27.099Z,5.10
2022-12-07T00:33:54.727Z,6.00
2022-12-07T00:36:26.901Z,5.10
2022-12-07T00:39:00.013Z,5.00
2022-12-07T00:41:31.278Z,6.40
2022-12-07T00:43:58.845Z,5.00
2022-12-07T00:46:26.966Z,5.10
2022-12-07T00:48:55.286Z,5.20
2022-12-07T00:51:25.066Z,5.00
2022-12-07T00:53:53.114Z,5.70
2022-12-07T00:56:23.504Z,5.00
2022-12-07T00:58:59.543Z,5.80
2022-12-07T01:01:29.654Z,5.00
2022-12-07T01:03:57.142Z,4.90
2022-12-07T01:06:25.743Z,4.70
2022-12-07T01:08:53.339Z,4.80
2022-12-07T01:11:24.179Z,4.70
2022-12-07T01:13:52.738Z,5.00
2022-12-07T01:16:21.935Z,4.60
2022-12-07T01:18:51.231Z,4.70
2022-12-07T01:21:23.894Z,6.80
2022-12-07T01:23:51.959Z,4.60
2022-12-07T01:26:24.454Z,4.40
2022-12-07T01:28:52.615Z,4.40
2022-12-07T01:31:23.103Z,5.30
2022-12-07T01:33:54.294Z,5.60
2022-12-07T01:36:26.051Z,5.30
2022-12-07T01:38:57.621Z,4.60
2022-12-07T01:41:28.030Z,4.60
2022-12-07T01:44:18.470Z,4.50
2022-12-07T01:47:06.144Z,4.70
2022-12-07T01:49:43.031Z,4.70
2022-12-07T01:52:13.484Z,4.70
2022-12-07T01:54:41.101Z,4.60
2022-12-07T01:57:09.866Z,6.40
2022-12-07T01:59:37.671Z,4.30
2022-12-07T02:02:11.320Z,4.60
2022-12-07T02:04:38.666Z,4.30
2022-12-07T02:07:07.313Z,4.20
2022-12-07T02:09:34.603Z,5.40
2022-12-07T02:12:02.671Z,4.40
2022-12-07T02:14:30.003Z,4.70
2022-12-07T02:17:29.094Z,5.40
2022-12-07T02:20:11.374Z,4.80
2022-12-07T02:23:12.921Z,4.90
2022-12-07T02:25:58.700Z,4.90
2022-12-07T02:29:01.493Z,4.90
2022-12-07T02:31:32.074Z,5.00
2022-12-07T02:34:13.583Z,4.70
2022-12-07T02:36:48.052Z,5.00
2022-12-07T02:39:26.227Z,5.70
2022-12-07T02:41:59.600Z,5.40
2022-12-07T02:44:29.047Z,4.90
2022-12-07T02:47:00.945Z,5.40
2022-12-07T02:49:31.802Z,6.40
2022-12-07T02:51:59.435Z,6.50
2022-12-07T02:54:26.785Z,4.80
2022-12-07T02:57:07.045Z,4.80
2022-12-07T03:00:07.667Z,4.70
2022-12-07T03:02:44.497Z,4.70
2022-12-07T03:05:39.519Z,4.30
2022-12-07T03:08:06.942Z,4.60
2022-12-07T03:10:42.768Z,4.40
2022-12-07T03:13:38.539Z,4.50
2022-12-07T03:16:17.890Z,4.50
2022-12-07T03:19:02.887Z,4.50
2022-12-07T03:21:40.795Z,4.40
2022-12-07T03:24:18.389Z,4.40
2022-12-07T03:26:57.127Z,4.40
2022-12-07T03:29:29.343Z,4.40
2022-12-07T03:32:09.561Z,5.40
2022-12-07T03:34:48.113Z,4.40
2022-12-07T03:37:27.518Z,6.20
2022-12-07T03:40:07.295Z,4.50
2022-12-07T03:42:35.167Z,4.20
2022-12-07T03:45:04.768Z,4.00
2022-12-07T03:47:45.581Z,4.10
2022-12-07T03:50:24.036Z,4.00
2022-12-07T03:53:03.566Z,4.10
2022-12-07T03:55:34.126Z,4.10
2022-12-07T03:58:07.012Z,4.00
2022-12-07T04:00:34.715Z,5.60
2022-12-07T04:03:02.146Z,4.20
2022-12-07T04:05:30.233Z,5.20
2022-12-07T04:07:57.593Z,4.40
2022-12-07T04:10:25.163Z,4.00
2022-12-07T04:12:52.489Z,4.80
2022-12-07T04:15:19.956Z,5.60
2022-12-07T04:17:47.263Z,6.10
2022-12-07T04:20:14.727Z,3.70
2022-12-07T04:22:42.055Z,4.40
2022-12-07T04:25:09.565Z,4.40
2022-12-07T04:27:36.913Z,4.00
2022-12-07T04:30:05.312Z,3.80
2022-12-07T04:32:32.811Z,4.00
2022-12-07T04:35:00.157Z,4.80
2022-12-07T04:37:27.576Z,3.80
2022-12-07T04:39:54.927Z,4.60
2022-12-07T04:42:22.239Z,3.70
2022-12-07T04:44:49.627Z,4.60
2022-12-07T04:47:17.001Z,3.70
2022-12-07T04:49:44.505Z,5.90
2022-12-07T04:52:11.870Z,3.80
2022-12-07T04:54:39.449Z,3.60
2022-12-07T04:57:06.831Z,3.70
2022-12-07T04:59:34.195Z,3.70
2022-12-07T05:02:01.559Z,3.70
2022-12-07T05:04:29.027Z,3.70
2022-12-07T05:06:56.326Z,3.70
2022-12-07T05:09:23.706Z,3.60
2022-12-07T05:11:50.992Z,4.20
2022-12-07T05:14:20.743Z,3.70
2022-12-07T05:16:50.662Z,3.70
2022-12-07T05:19:18.940Z,3.30
2022-12-07T05:21:46.353Z,3.80
2022-12-07T05:24:15.168Z,3.80
2022-12-07T05:26:42.771Z,4.30
2022-12-07T05:29:16.681Z,3.80
2022-12-07T05:31:45.083Z,3.70
2022-12-07T05:34:13.170Z,5.00
2022-12-07T05:36:40.779Z,3.80
2022-12-07T05:39:09.363Z,3.70
2022-12-07T05:41:55.127Z,3.60
2022-12-07T05:44:22.591Z,3.90
2022-12-07T05:46:49.893Z,4.90
2022-12-07T05:49:17.399Z,3.80
2022-12-07T05:51:44.757Z,4.10
2022-12-07T05:54:12.135Z,4.10
2022-12-07T05:56:39.513Z,4.90
2022-12-07T05:59:25.406Z,4.40
2022-12-07T06:01:53.869Z,5.10
2022-12-07T06:04:22.552Z,5.40
2022-12-07T06:06:50.213Z,4.80
2022-12-07T06:09:19.371Z,5.90
2022-12-07T06:12:05.166Z,6.20
2022-12-07T06:14:32.536Z,5.00
2022-12-07T06:17:00.947Z,3.90
2022-12-07T06:19:28.589Z,3.90
2022-12-07T06:21:56.190Z,3.90
2022-12-07T06:24:23.726Z,5.70
2022-12-07T06:26:51.090Z,4.50
2022-12-07T06:29:19.501Z,5.00
2022-12-07T06:31:47.284Z,3.80
2022-12-07T06:34:20.210Z,4.50
2022-12-07T06:36:52.111Z,4.20
2022-12-07T06:39:21.101Z,4.20
2022-12-07T06:41:48.470Z,4.00
2022-12-07T06:44:15.827Z,5.20
2022-12-07T06:46:43.201Z,4.40
2022-12-07T06:49:10.503Z,4.20
2022-12-07T06:51:41.943Z,5.20
2022-12-07T06:54:10.762Z,4.00
2022-12-07T06:56:38.453Z,4.10
2022-12-07T06:59:07.501Z,4.10
2022-12-07T07:01:36.175Z,4.60
2022-12-07T07:04:04.489Z,5.60
2022-12-07T07:06:31.957Z,4.20
2022-12-07T07:08:59.467Z,6.10
2022-12-07T07:11:27.497Z,5.50
2022-12-07T07:13:57.921Z,4.10
2022-12-07T07:16:25.583Z,3.80
2022-12-07T07:18:53.060Z,5.20
2022-12-07T07:21:20.369Z,4.10
2022-12-07T07:23:47.697Z,4.00
2022-12-07T07:26:19.983Z,6.10
2022-12-07T07:28:50.261Z,4.00
2022-12-07T07:31:17.660Z,3.70
2022-12-07T07:33:47.656Z,4.10
2022-12-07T07:36:14.977Z,4.20
2022-12-07T07:38:42.331Z,3.80
2022-12-07T07:41:09.734Z,4.00
2022-12-07T07:43:37.121Z,4.00
2022-12-07T07:46:04.603Z,5.00
2022-12-07T07:48:32.305Z,3.70
2022-12-07T07:50:59.661Z,3.60
2022-12-07T07:53:27.114Z,3.60
2022-12-07T07:55:55.390Z,3.70
2022-12-07T07:58:23.040Z,5.20
2022-12-07T08:00:50.775Z,3.60
2022-12-07T08:03:18.234Z,3.90
2022-12-07T08:05:45.571Z,4.70
2022-12-07T08:08:13.106Z,4.90
2022-12-07T08:10:40.577Z,5.20
2022-12-07T08:13:14.940Z,3.50
2022-12-07T08:15:44.621Z,3.50
2022-12-07T08:18:13.132Z,3.40
2022-12-07T08:20:43.280Z,3.30
2022-12-07T08:23:11.918Z,5.30
2022-12-07T08:25:39.992Z,3.80
2022-12-07T08:28:07.961Z,4.70
2022-12-07T08:30:35.452Z,4.00
2022-12-07T08:33:02.979Z,3.70
2022-12-07T08:35:30.348Z,4.30
2022-12-07T08:37:58.931Z,4.20
2022-12-07T08:40:26.307Z,5.60
2022-12-07T08:42:53.853Z,4.70
2022-12-07T08:45:27.140Z,6.10
2022-12-07T08:48:09.358Z,7.10
2022-12-07T08:50:38.308Z,4.80
2022-12-07T08:53:07.353Z,5.70
2022-12-07T08:55:35.611Z,4.60
2022-12-07T08:58:04.557Z,5.50
2022-12-07T09:00:32.291Z,5.00
2022-12-07T09:03:00.108Z,6.80
2022-12-07T09:05:27.517Z,5.00
2022-12-07T09:07:59.271Z,6.80
2022-12-07T09:10:27.035Z,6.60
2022-12-07T09:12:54.802Z,5.30
2022-12-07T09:15:22.157Z,5.50
2022-12-07T09:17:49.634Z,6.20
2022-12-07T09:20:17.132Z,5.20
2022-12-07T09:22:44.425Z,5.60
2022-12-07T09:25:11.813Z,5.50
2022-12-07T09:27:39.237Z,7.90
2022-12-07T09:30:07.379Z,6.40
2022-12-07T09:32:34.790Z,5.90
2022-12-07T09:35:02.707Z,6.70
2022-12-07T09:37:30.246Z,5.80
2022-12-07T09:39:57.543Z,5.70
2022-12-07T09:42:40.738Z,7.80
2022-12-07T09:45:15.511Z,6.10
2022-12-07T09:47:43.480Z,6.20
2022-12-07T09:50:21.187Z,6.20
2022-12-07T09:52:49.547Z,6.20
2022-12-07T09:55:39.152Z,6.10
2022-12-07T09:58:06.475Z,6.60
2022-12-07T10:00:33.908Z,6.00
2022-12-07T10:03:03.431Z,6.00
2022-12-07T10:05:39.421Z,6.80
2022-12-07T10:08:10.767Z,6.10
2022-12-07T10:10:39.837Z,6.40
2022-12-07T10:13:13.818Z,6.50
2022-12-07T10:15:47.267Z,6.60
2022-12-07T10:18:32.992Z,6.80
2022-12-07T10:21:08.867Z,6.90
2022-12-07T10:23:38.141Z,6.90
2022-12-07T10:26:32.685Z,7.90
2022-12-07T10:29:02.739Z,6.70
2022-12-07T10:31:30.241Z,7.40
2022-12-07T10:34:00.720Z,8.60
2022-12-07T10:36:28.031Z,7.30
2022-12-07T10:39:13.539Z,8.20
2022-12-07T10:42:01.178Z,7.40
2022-12-07T10:44:34.124Z,9.30
2022-12-07T10:47:10.561Z,7.20
2022-12-07T10:50:02.715Z,7.20
2022-12-07T10:52:29.991Z,7.10
2022-12-07T10:55:13.957Z,7.00
2022-12-07T10:57:47.206Z,7.10
2022-12-07T11:00:24.561Z,7.00
2022-12-07T11:03:22.773Z,6.90
2022-12-07T11:06:08.487Z,6.90
2022-12-07T11:08:54.850Z,6.90
2022-12-07T11:11:39.068Z,6.90
2022-12-07T11:14:21.082Z,6.90
2022-12-07T11:17:00.867Z,6.90
2022-12-07T11:19:53.422Z,7.00
2022-12-07T11:22:32.850Z,7.00
2022-12-07T11:25:27.163Z,8.80
2022-12-07T11:28:15.403Z,7.10
2022-12-07T11:31:06.774Z,7.00
2022-12-07T11:33:47.832Z,6.30
2022-12-07T11:36:36.378Z,6.90
2022-12-07T11:39:12.966Z,7.30
2022-12-07T11:41:43.130Z,7.40
2022-12-07T11:44:27.353Z,7.40
2022-12-07T11:47:14.896Z,8.40
2022-12-07T11:50:26.538Z,7.30
2022-12-07T11:53:09.043Z,7.20
2022-12-07T11:55:56.230Z,7.10
2022-12-07T11:58:42.115Z,7.10
2022-12-07T12:01:18.373Z,7.10
2022-12-07T12:03:53.006Z,8.50
2022-12-07T12:06:22.871Z,7.20
2022-12-07T12:15:42.964Z,7.00
2022-12-07T12:18:51.107Z,7.20
2022-12-07T12:21:24.728Z,7.20
2022-12-07T12:24:00.248Z,7.10
2022-12-07T12:26:32.376Z,7.10
2022-12-07T12:29:04.040Z,8.10
2022-12-07T12:31:40.151Z,9.10
2022-12-07T12:34:34.316Z,6.70
2022-12-07T12:37:01.783Z,7.00
2022-12-07T12:39:29.377Z,7.00
2022-12-07T12:41:58.805Z,8.70
2022-12-07T12:44:35.105Z,7.60
2022-12-07T12:47:03.129Z,8.80
2022-12-07T12:49:30.497Z,7.70
2022-12-07T12:52:15.975Z,8.30
2022-12-07T12:55:08.341Z,6.80
2022-12-07T12:57:37.346Z,6.70
2022-12-07T13:00:20.250Z,6.70
2022-12-07T13:02:54.297Z,6.60
2022-12-07T13:05:28.390Z,6.60
2022-12-07T13:08:15.558Z,6.60
2022-12-07T13:10:45.660Z,6.50
2022-12-07T13:13:14.847Z,7.70
2022-12-07T13:15:52.531Z,6.50
2022-12-07T13:18:22.995Z,6.60
2022-12-07T13:20:53.328Z,7.70
2022-12-07T13:23:41.106Z,6.60
2022-12-07T13:26:35.812Z,6.90
2022-12-07T13:29:16.055Z,6.90
2022-12-07T13:31:55.228Z,7.20
2022-12-07T13:34:31.533Z,7.20
2022-12-07T13:37:06.123Z,7.60
2022-12-07T13:39:35.704Z,7.30
2022-12-07T13:42:27.752Z,7.40
2022-12-07T13:44:56.227Z,8.70
2022-12-07T13:47:53.181Z,7.00
2022-12-07T13:50:30.365Z,6.90
2022-12-07T13:52:59.913Z,6.90
2022-12-07T13:55:29.010Z,8.90
2022-12-07T13:57:57.522Z,4.90
2022-12-07T14:00:30.716Z,6.60
2022-12-07T14:03:05.466Z,6.20
2022-12-07T14:05:34.050Z,8.90
2022-12-07T14:08:02.913Z,6.70
2022-12-07T14:10:50.609Z,6.20
2022-12-07T14:13:32.650Z,7.10
2022-12-07T14:16:00.304Z,6.60
2022-12-07T14:18:38.453Z,6.50
2022-12-07T14:21:11.848Z,7.60
2022-12-07T14:23:40.323Z,7.50
2022-12-07T14:26:16.513Z,6.30
2022-12-07T14:28:46.292Z,7.90
2022-12-07T14:31:26.355Z,5.80
2022-12-07T14:34:00.945Z,6.20
2022-12-07T14:36:28.353Z,7.30
2022-12-07T14:38:57.351Z,8.90
2022-12-07T14:41:43.620Z,6.10
2022-12-07T14:44:35.228Z,6.00
2022-12-07T14:49:48.033Z,6.50
2022-12-07T14:55:29.344Z,5.90
2022-12-07T14:57:57.363Z,6.90
2022-12-07T15:00:27.068Z,6.30
2022-12-07T15:02:55.125Z,6.20
2022-12-07T15:05:22.631Z,6.30
2022-12-07T15:07:50.921Z,6.10
2022-12-07T15:10:31.068Z,8.20
2022-12-07T15:13:22.404Z,7.40
2022-12-07T15:15:51.727Z,7.60
2022-12-07T15:18:20.524Z,6.10
2022-12-07T15:20:48.548Z,5.80
2022-12-07T15:23:16.363Z,6.10
2022-12-07T15:25:44.834Z,8.00
2022-12-07T15:28:13.083Z,5.90
2022-12-07T15:30:43.876Z,7.10
2022-12-07T15:33:12.664Z,5.90
2022-12-07T15:35:49.199Z,5.80
2022-12-07T15:38:16.676Z,6.80
2022-12-07T15:40:47.452Z,7.50
2022-12-07T15:43:33.374Z,7.60
2022-12-07T15:46:00.794Z,6.20
2022-12-07T15:48:29.255Z,5.70
2022-12-07T15:51:11.143Z,5.40
2022-12-07T15:53:39.079Z,5.70
2022-12-07T15:56:09.855Z,5.20
2022-12-07T15:58:37.295Z,6.60
2022-12-07T16:01:22.901Z,6.40
2022-12-07T16:03:50.319Z,5.70
2022-12-07T16:06:18.888Z,5.60
2022-12-07T16:08:47.571Z,6.30
2022-12-07T16:11:15.258Z,5.00
2022-12-07T16:13:42.631Z,5.30
2022-12-07T16:16:15.820Z,7.90
2022-12-07T16:18:44.317Z,5.60
2022-12-07T16:21:11.723Z,5.50
2022-12-07T16:23:39.439Z,6.10
2022-12-07T16:26:15.106Z,5.70
2022-12-07T16:28:42.860Z,5.40
2022-12-07T16:31:14.862Z,5.50
2022-12-07T16:33:44.268Z,5.30
2022-12-07T16:36:12.726Z,7.20
2022-12-07T16:38:40.165Z,5.30
2022-12-07T16:41:08.411Z,6.90
2022-12-07T16:43:36.245Z,5.40
2022-12-07T16:46:04.305Z,5.30
2022-12-07T16:48:32.313Z,6.00
2022-12-07T16:51:05.096Z,5.60
2022-12-07T16:53:32.523Z,7.60
2022-12-07T16:55:59.903Z,5.20
2022-12-07T16:58:27.422Z,4.90
2022-12-07T17:00:55.011Z,5.40
2022-12-07T17:03:22.416Z,5.70
2022-12-07T17:05:49.887Z,5.20
2022-12-07T17:08:17.340Z,5.30
2022-12-07T17:10:46.157Z,5.40
2022-12-07T17:13:33.728Z,5.60
2022-12-07T17:16:07.001Z,5.70
2022-12-07T17:18:36.988Z,5.30
2022-12-07T17:21:07.277Z,5.60
2022-12-07T17:23:36.420Z,5.30
2022-12-07T17:26:11.714Z,6.10
2022-12-07T17:28:39.816Z,5.00
2022-12-07T17:31:09.828Z,5.20
2022-12-07T17:33:37.657Z,5.30
2022-12-07T17:36:23.287Z,6.80
2022-12-07T17:38:51.440Z,5.30
2022-12-07T17:41:41.461Z,4.90
2022-12-07T17:44:17.351Z,5.30
2022-12-07T17:46:49.183Z,5.40
2022-12-07T17:49:17.169Z,5.40
2022-12-07T17:52:02.990Z,6.30
2022-12-07T17:54:30.478Z,4.90
2022-12-07T17:56:58.152Z,7.50
2022-12-07T17:59:25.556Z,6.80
2022-12-07T18:01:53.354Z,6.10
2022-12-07T18:04:20.818Z,5.30
2022-12-07T18:06:52.128Z,6.40
2022-12-07T18:09:22.038Z,5.10
2022-12-07T18:11:49.396Z,5.90
2022-12-07T18:14:17.002Z,6.70
2022-12-07T18:16:44.917Z,5.30
2022-12-07T18:19:14.747Z,6.70
2022-12-07T18:21:43.393Z,6.00
2022-12-07T18:24:13.357Z,5.40
2022-12-07T18:26:41.973Z,5.40
2022-12-07T18:29:16.775Z,5.30
2022-12-07T18:31:44.829Z,7.00
2022-12-07T18:34:14.094Z,5.40
2022-12-07T18:36:43.846Z,7.40
2022-12-07T18:39:11.471Z,7.60
2022-12-07T18:41:39.942Z,7.40
2022-12-07T18:44:08.149Z,5.40
2022-12-07T18:46:36.493Z,5.30
2022-12-07T18:49:04.687Z,5.00
2022-12-07T18:51:32.903Z,6.70
2022-12-07T18:54:01.538Z,5.90
2022-12-07T18:56:29.454Z,6.20
2022-12-07T18:59:17.411Z,5.00
2022-12-07T19:01:47.565Z,7.20
2022-12-07T19:04:15.199Z,5.30
2022-12-07T19:06:44.532Z,6.90
2022-12-07T19:09:13.455Z,5.00
2022-12-07T19:11:50.486Z,5.20
2022-12-07T19:14:20.835Z,5.30
2022-12-07T19:16:51.743Z,5.30
2022-12-07T19:19:21.630Z,5.40
2022-12-07T19:21:49.434Z,7.10
2022-12-07T19:24:23.208Z,6.00
2022-12-07T19:26:52.600Z,7.70
2022-12-07T19:29:20.175Z,4.90
2022-12-07T19:31:47.790Z,5.20
2022-12-07T19:34:18.714Z,6.60
2022-12-07T19:36:47.051Z,6.10
2022-12-07T19:39:16.113Z,5.60
2022-12-07T19:41:44.880Z,5.40
2022-12-07T19:44:13.677Z,5.30
2022-12-07T19:46:42.923Z,5.00
2022-12-07T19:49:10.459Z,5.10
2022-12-07T19:51:37.826Z,5.20
2022-12-07T19:54:05.383Z,5.80
2022-12-07T19:56:32.797Z,5.30
2022-12-07T19:59:01.381Z,5.10
2022-12-07T20:01:29.666Z,4.80
2022-12-07T20:03:58.012Z,6.20
2022-12-07T20:06:26.449Z,6.80
2022-12-07T20:08:53.821Z,5.10
2022-12-07T20:11:39.716Z,5.10
2022-12-07T20:14:09.180Z,5.20
2022-12-07T20:16:36.788Z,5.20
2022-12-07T20:19:04.294Z,6.50
2022-12-07T20:21:31.820Z,6.00
2022-12-07T20:24:03.562Z,5.10
2022-12-07T20:26:31.274Z,4.80
2022-12-07T20:29:01.832Z,4.80
2022-12-07T20:31:31.844Z,5.10
2022-12-07T20:34:00.479Z,5.80
2022-12-07T20:36:33.042Z,7.10
2022-12-07T20:39:02.280Z,5.00
2022-12-07T20:41:48.463Z,4.80
2022-12-07T20:44:17.144Z,6.40
2022-12-07T20:46:45.604Z,6.30
2022-12-07T20:49:16.700Z,4.70
2022-12-07T20:51:44.910Z,5.10
2022-12-07T20:54:13.749Z,5.10
2022-12-07T20:56:41.719Z,6.00
2022-12-07T20:59:15.296Z,7.10
2022-12-07T21:01:43.238Z,5.60
2022-12-07T21:04:12.341Z,7.20
2022-12-07T21:06:39.850Z,6.20
2022-12-07T21:09:07.760Z,7.20
2022-12-07T21:11:35.194Z,5.00
2022-12-07T21:14:02.634Z,5.00
2022-12-07T21:16:31.516Z,4.70
2022-12-07T21:19:04.278Z,6.80
2022-12-07T21:21:33.051Z,5.00
2022-12-07T21:24:02.994Z,6.50
2022-12-07T21:26:33.937Z,4.80
2022-12-07T21:29:03.034Z,6.10
2022-12-07T21:31:30.620Z,5.00
2022-12-07T21:33:58.130Z,4.80
2022-12-07T21:36:26.726Z,5.00
2022-12-07T21:38:54.441Z,4.90
2022-12-07T21:41:30.382Z,5.00
2022-12-07T21:43:58.645Z,5.50
2022-12-07T21:46:33.723Z,4.90
2022-12-07T21:49:04.961Z,5.60
2022-12-07T21:51:33.283Z,4.50
2022-12-07T21:54:01.825Z,4.80
2022-12-07T21:56:32.708Z,4.80
2022-12-07T21:59:09.030Z,4.70
2022-12-07T22:01:40.894Z,5.50
2022-12-07T22:04:11.929Z,4.50
2022-12-07T22:06:39.791Z,6.50
2022-12-07T22:09:07.379Z,5.00
2022-12-07T22:11:35.834Z,6.90
2022-12-07T22:14:23.229Z,4.90
2022-12-07T22:16:51.668Z,4.80
2022-12-07T22:19:19.171Z,4.90
2022-12-07T22:21:46.603Z,4.80
2022-12-07T22:24:14.115Z,4.90
2022-12-07T22:26:43.143Z,4.90
2022-12-07T22:29:11.501Z,5.70
2022-12-07T22:31:40.982Z,4.90
2022-12-07T22:34:16.741Z,4.90
2022-12-07T22:36:44.933Z,4.90
2022-12-07T22:39:12.661Z,5.00
2022-12-07T22:41:40.428Z,4.70
2022-12-07T22:44:09.848Z,4.90
2022-12-07T22:46:37.732Z,4.80
2022-12-07T22:49:05.764Z,6.40
2022-12-07T22:51:35.776Z,4.70
2022-12-07T22:54:05.539Z,4.90
2022-12-07T22:56:35.336Z,4.70
2022-12-07T22:59:04.657Z,5.40
2022-12-07T23:01:32.067Z,5.00
2022-12-07T23:03:59.538Z,4.80
2022-12-07T23:06:29.967Z,4.90
2022-12-07T23:08:58.995Z,4.80
2022-12-07T23:11:47.976Z,4.60
2022-12-07T23:14:18.468Z,5.00
2022-12-07T23:16:46.064Z,4.70
2022-12-07T23:19:13.737Z,4.90
2022-12-07T23:21:41.131Z,5.00
2022-12-07T23:24:11.602Z,4.70
2022-12-07T23:26:39.563Z,4.90
2022-12-07T23:29:06.996Z,5.60
2022-12-07T23:31:34.640Z,5.40
2022-12-07T23:34:02.212Z,7.40
2022-12-07T23:36:29.916Z,5.00
2022-12-07T23:38:58.977Z,4.60
2022-12-07T23:41:29.884Z,6.70
2022-12-07T23:43:59.719Z,5.20
2022-12-07T23:46:29.964Z,4.80
2022-12-07T23:48:59.872Z,4.90
2022-12-07T23:51:27.522Z,5.60
2022-12-07T23:53:55.651Z,5.70
2022-12-07T23:56:25.865Z,4.60
2022-12-07T23:58:54.508Z,5.00
